sensor_id;sensor_type;location;lat;lon;timestamp;temperature;humidity
16517;DHT22;8371;52.272;9.746;2023-02-11T00:02:02;8.80;74.40
16517;DHT22;8371;52.272;9.746;2023-02-11T00:04:30;8.80;74.40
16517;DHT22;8371;52.272;9.746;2023-02-11T00:06:56;8.80;74.40
16517;DHT22;8371;52.272;9.746;2023-02-11T00:09:22;8.80;74.40
16517;DHT22;8371;52.272;9.746;2023-02-11T00:11:48;8.80;74.40
16517;DHT22;8371;52.272;9.746;2023-02-11T00:14:14;8.80;74.40
16517;DHT22;8371;52.272;9.746;2023-02-11T00:16:39;8.90;74.50
16517;DHT22;8371;52.272;9.746;2023-02-11T00:19:05;8.90;74.40
16517;DHT22;8371;52.272;9.746;2023-02-11T00:21:31;8.80;74.40
16517;DHT22;8371;52.272;9.746;2023-02-11T00:23:58;8.90;74.50
16517;DHT22;8371;52.272;9.746;2023-02-11T00:26:29;8.90;74.40
16517;DHT22;8371;52.272;9.746;2023-02-11T00:28:55;8.90;74.40
16517;DHT22;8371;52.272;9.746;2023-02-11T00:31:22;8.90;74.40
16517;DHT22;8371;52.272;9.746;2023-02-11T00:33:48;8.90;74.40
16517;DHT22;8371;52.272;9.746;2023-02-11T00:36:17;8.90;74.50
16517;DHT22;8371;52.272;9.746;2023-02-11T00:38:44;8.90;74.50
16517;DHT22;8371;52.272;9.746;2023-02-11T00:41:11;8.90;74.50
16517;DHT22;8371;52.272;9.746;2023-02-11T00:43:38;8.90;74.50
16517;DHT22;8371;52.272;9.746;2023-02-11T00:46:04;8.90;74.50
16517;DHT22;8371;52.272;9.746;2023-02-11T00:48:30;8.90;74.50
16517;DHT22;8371;52.272;9.746;2023-02-11T00:50:55;9.00;75.30
16517;DHT22;8371;52.272;9.746;2023-02-11T00:53:21;8.90;74.60
16517;DHT22;8371;52.272;9.746;2023-02-11T00:55:47;9.00;74.60
16517;DHT22;8371;52.272;9.746;2023-02-11T00:58:12;8.90;74.60
16517;DHT22;8371;52.272;9.746;2023-02-11T01:00:38;8.90;74.60
16517;DHT22;8371;52.272;9.746;2023-02-11T01:03:04;9.00;74.70
16517;DHT22;8371;52.272;9.746;2023-02-11T01:05:30;8.90;74.60
16517;DHT22;8371;52.272;9.746;2023-02-11T01:07:56;8.90;74.70
16517;DHT22;8371;52.272;9.746;2023-02-11T01:10:22;9.00;74.80
16517;DHT22;8371;52.272;9.746;2023-02-11T01:12:48;8.90;74.70
16517;DHT22;8371;52.272;9.746;2023-02-11T01:15:16;8.90;74.70
16517;DHT22;8371;52.272;9.746;2023-02-11T01:17:41;8.90;74.90
16517;DHT22;8371;52.272;9.746;2023-02-11T01:20:14;8.90;74.80
16517;DHT22;8371;52.272;9.746;2023-02-11T01:22:40;8.90;74.80
16517;DHT22;8371;52.272;9.746;2023-02-11T01:25:06;8.90;75.00
16517;DHT22;8371;52.272;9.746;2023-02-11T01:27:32;8.90;75.00
16517;DHT22;8371;52.272;9.746;2023-02-11T01:29:58;8.90;75.00
16517;DHT22;8371;52.272;9.746;2023-02-11T01:32:24;8.90;75.10
16517;DHT22;8371;52.272;9.746;2023-02-11T01:34:50;8.90;75.10
16517;DHT22;8371;52.272;9.746;2023-02-11T01:37:15;8.90;75.20
16517;DHT22;8371;52.272;9.746;2023-02-11T01:39:41;8.90;75.50
16517;DHT22;8371;52.272;9.746;2023-02-11T01:42:15;8.90;75.20
16517;DHT22;8371;52.272;9.746;2023-02-11T01:44:41;8.90;75.20
16517;DHT22;8371;52.272;9.746;2023-02-11T01:47:06;8.80;75.20
16517;DHT22;8371;52.272;9.746;2023-02-11T01:49:35;8.90;75.30
16517;DHT22;8371;52.272;9.746;2023-02-11T01:52:17;8.80;75.30
16517;DHT22;8371;52.272;9.746;2023-02-11T01:55:01;8.80;75.40
16517;DHT22;8371;52.272;9.746;2023-02-11T01:57:44;8.80;75.40
16517;DHT22;8371;52.272;9.746;2023-02-11T02:03:01;8.80;75.50
16517;DHT22;8371;52.272;9.746;2023-02-11T02:05:51;8.80;76.40
16517;DHT22;8371;52.272;9.746;2023-02-11T02:08:24;8.80;75.60
16517;DHT22;8371;52.272;9.746;2023-02-11T02:10:51;8.80;75.60
16517;DHT22;8371;52.272;9.746;2023-02-11T02:13:20;8.80;75.70
16517;DHT22;8371;52.272;9.746;2023-02-11T02:15:50;8.80;75.80
16517;DHT22;8371;52.272;9.746;2023-02-11T02:18:55;8.80;75.90
16517;DHT22;8371;52.272;9.746;2023-02-11T02:24:27;8.80;75.90
16517;DHT22;8371;52.272;9.746;2023-02-11T02:27:02;8.80;75.90
16517;DHT22;8371;52.272;9.746;2023-02-11T02:35:12;8.80;77.00
16517;DHT22;8371;52.272;9.746;2023-02-11T02:40:31;8.70;76.10
16517;DHT22;8371;52.272;9.746;2023-02-11T02:42:55;8.80;76.30
16517;DHT22;8371;52.272;9.746;2023-02-11T02:45:21;8.80;76.30
16517;DHT22;8371;52.272;9.746;2023-02-11T02:47:46;8.80;76.50
16517;DHT22;8371;52.272;9.746;2023-02-11T02:50:14;8.80;76.50
16517;DHT22;8371;52.272;9.746;2023-02-11T02:52:45;8.80;76.40
16517;DHT22;8371;52.272;9.746;2023-02-11T02:58:20;8.80;76.50
16517;DHT22;8371;52.272;9.746;2023-02-11T03:00:57;8.80;76.40
16517;DHT22;8371;52.272;9.746;2023-02-11T03:03:48;8.80;76.50
16517;DHT22;8371;52.272;9.746;2023-02-11T03:06:30;8.80;76.60
16517;DHT22;8371;52.272;9.746;2023-02-11T03:09:09;8.80;76.50
16517;DHT22;8371;52.272;9.746;2023-02-11T03:11:36;8.80;76.60
16517;DHT22;8371;52.272;9.746;2023-02-11T03:14:05;8.90;76.70
16517;DHT22;8371;52.272;9.746;2023-02-11T03:16:31;8.80;76.70
16517;DHT22;8371;52.272;9.746;2023-02-11T03:19:09;8.90;76.70
16517;DHT22;8371;52.272;9.746;2023-02-11T03:21:36;8.90;76.80
16517;DHT22;8371;52.272;9.746;2023-02-11T03:24:06;8.90;76.80
16517;DHT22;8371;52.272;9.746;2023-02-11T03:26:36;8.90;76.90
16517;DHT22;8371;52.272;9.746;2023-02-11T03:29:17;8.90;76.90
16517;DHT22;8371;52.272;9.746;2023-02-11T03:32:05;8.80;76.80
16517;DHT22;8371;52.272;9.746;2023-02-11T03:34:45;8.90;76.90
16517;DHT22;8371;52.272;9.746;2023-02-11T03:37:27;8.90;76.90
16517;DHT22;8371;52.272;9.746;2023-02-11T03:40:10;8.90;76.90
16517;DHT22;8371;52.272;9.746;2023-02-11T03:42:25;8.90;76.90
16517;DHT22;8371;52.272;9.746;2023-02-11T03:44:57;8.90;76.90
16517;DHT22;8371;52.272;9.746;2023-02-11T03:47:24;8.90;76.90
16517;DHT22;8371;52.272;9.746;2023-02-11T03:49:52;8.90;77.10
16517;DHT22;8371;52.272;9.746;2023-02-11T03:52:21;8.90;77.00
16517;DHT22;8371;52.272;9.746;2023-02-11T03:54:50;8.90;77.20
16517;DHT22;8371;52.272;9.746;2023-02-11T03:57:17;9.00;77.10
16517;DHT22;8371;52.272;9.746;2023-02-11T03:59:50;9.00;77.40
16517;DHT22;8371;52.272;9.746;2023-02-11T04:02:16;9.00;77.30
16517;DHT22;8371;52.272;9.746;2023-02-11T04:04:42;9.00;77.20
16517;DHT22;8371;52.272;9.746;2023-02-11T04:07:10;9.00;77.20
16517;DHT22;8371;52.272;9.746;2023-02-11T04:09:36;9.00;77.20
16517;DHT22;8371;52.272;9.746;2023-02-11T04:12:02;9.00;77.20
16517;DHT22;8371;52.272;9.746;2023-02-11T04:14:28;9.00;77.20
16517;DHT22;8371;52.272;9.746;2023-02-11T04:16:54;9.00;77.20
16517;DHT22;8371;52.272;9.746;2023-02-11T04:19:19;9.00;77.30
16517;DHT22;8371;52.272;9.746;2023-02-11T04:21:46;9.00;77.30
16517;DHT22;8371;52.272;9.746;2023-02-11T04:24:11;9.00;77.30
16517;DHT22;8371;52.272;9.746;2023-02-11T04:26:37;9.00;77.30
16517;DHT22;8371;52.272;9.746;2023-02-11T04:29:03;9.00;77.40
16517;DHT22;8371;52.272;9.746;2023-02-11T04:31:28;9.00;77.50
16517;DHT22;8371;52.272;9.746;2023-02-11T04:33:55;9.10;77.50
16517;DHT22;8371;52.272;9.746;2023-02-11T04:36:21;9.00;77.30
16517;DHT22;8371;52.272;9.746;2023-02-11T04:38:46;9.00;77.50
16517;DHT22;8371;52.272;9.746;2023-02-11T04:41:12;9.00;77.80
16517;DHT22;8371;52.272;9.746;2023-02-11T04:43:38;9.00;77.80
16517;DHT22;8371;52.272;9.746;2023-02-11T04:46:04;9.00;77.80
16517;DHT22;8371;52.272;9.746;2023-02-11T04:48:29;9.00;77.70
16517;DHT22;8371;52.272;9.746;2023-02-11T04:50:55;9.00;77.70
16517;DHT22;8371;52.272;9.746;2023-02-11T04:53:21;9.00;77.80
16517;DHT22;8371;52.272;9.746;2023-02-11T04:55:48;9.00;77.80
16517;DHT22;8371;52.272;9.746;2023-02-11T04:58:15;9.00;77.80
16517;DHT22;8371;52.272;9.746;2023-02-11T05:00:41;9.10;77.90
16517;DHT22;8371;52.272;9.746;2023-02-11T05:03:06;9.00;78.70
16517;DHT22;8371;52.272;9.746;2023-02-11T05:05:32;9.00;78.00
16517;DHT22;8371;52.272;9.746;2023-02-11T05:07:58;9.00;77.90
16517;DHT22;8371;52.272;9.746;2023-02-11T05:10:23;9.10;78.00
16517;DHT22;8371;52.272;9.746;2023-02-11T05:12:49;9.10;78.10
16517;DHT22;8371;52.272;9.746;2023-02-11T05:15:15;9.10;78.00
16517;DHT22;8371;52.272;9.746;2023-02-11T05:17:40;9.10;78.00
16517;DHT22;8371;52.272;9.746;2023-02-11T05:20:07;9.10;78.00
16517;DHT22;8371;52.272;9.746;2023-02-11T05:22:32;9.20;78.10
16517;DHT22;8371;52.272;9.746;2023-02-11T05:24:58;9.20;78.00
16517;DHT22;8371;52.272;9.746;2023-02-11T05:27:24;9.20;77.90
16517;DHT22;8371;52.272;9.746;2023-02-11T05:29:49;9.20;78.10
16517;DHT22;8371;52.272;9.746;2023-02-11T05:32:15;9.20;78.00
16517;DHT22;8371;52.272;9.746;2023-02-11T05:34:41;9.20;78.00
16517;DHT22;8371;52.272;9.746;2023-02-11T05:37:07;9.20;78.00
16517;DHT22;8371;52.272;9.746;2023-02-11T05:39:32;9.20;78.00
16517;DHT22;8371;52.272;9.746;2023-02-11T05:41:58;9.20;77.90
16517;DHT22;8371;52.272;9.746;2023-02-11T05:44:24;9.30;78.10
16517;DHT22;8371;52.272;9.746;2023-02-11T05:46:49;9.30;78.00
16517;DHT22;8371;52.272;9.746;2023-02-11T05:49:16;9.30;78.00
16517;DHT22;8371;52.272;9.746;2023-02-11T05:51:42;9.30;78.10
16517;DHT22;8371;52.272;9.746;2023-02-11T05:54:07;9.30;78.00
16517;DHT22;8371;52.272;9.746;2023-02-11T05:56:33;9.30;78.10
16517;DHT22;8371;52.272;9.746;2023-02-11T05:58:59;9.30;78.00
16517;DHT22;8371;52.272;9.746;2023-02-11T06:01:25;9.30;78.20
16517;DHT22;8371;52.272;9.746;2023-02-11T06:03:51;9.30;78.00
16517;DHT22;8371;52.272;9.746;2023-02-11T06:06:16;9.40;78.00
16517;DHT22;8371;52.272;9.746;2023-02-11T06:08:42;9.40;78.20
16517;DHT22;8371;52.272;9.746;2023-02-11T06:11:08;9.30;78.00
16517;DHT22;8371;52.272;9.746;2023-02-11T06:13:34;9.40;78.20
16517;DHT22;8371;52.272;9.746;2023-02-11T06:16:01;9.40;78.10
16517;DHT22;8371;52.272;9.746;2023-02-11T06:18:27;9.40;78.20
16517;DHT22;8371;52.272;9.746;2023-02-11T06:20:54;9.40;78.20
16517;DHT22;8371;52.272;9.746;2023-02-11T06:23:20;9.40;78.10
16517;DHT22;8371;52.272;9.746;2023-02-11T06:25:46;9.40;78.10
16517;DHT22;8371;52.272;9.746;2023-02-11T06:28:12;9.40;78.00
16517;DHT22;8371;52.272;9.746;2023-02-11T06:30:38;9.40;78.00
16517;DHT22;8371;52.272;9.746;2023-02-11T06:33:03;9.50;78.20
16517;DHT22;8371;52.272;9.746;2023-02-11T06:35:30;9.50;78.20
16517;DHT22;8371;52.272;9.746;2023-02-11T06:37:58;9.50;79.00
16517;DHT22;8371;52.272;9.746;2023-02-11T06:40:23;9.50;78.20
16517;DHT22;8371;52.272;9.746;2023-02-11T06:42:49;9.50;78.30
16517;DHT22;8371;52.272;9.746;2023-02-11T06:45:15;9.50;78.20
16517;DHT22;8371;52.272;9.746;2023-02-11T06:47:40;9.50;78.10
16517;DHT22;8371;52.272;9.746;2023-02-11T06:50:09;9.50;78.10
16517;DHT22;8371;52.272;9.746;2023-02-11T06:52:35;9.50;78.10
16517;DHT22;8371;52.272;9.746;2023-02-11T06:55:00;9.60;78.20
16517;DHT22;8371;52.272;9.746;2023-02-11T06:57:27;9.60;78.20
16517;DHT22;8371;52.272;9.746;2023-02-11T06:59:52;9.60;78.20
16517;DHT22;8371;52.272;9.746;2023-02-11T07:02:18;9.60;78.20
16517;DHT22;8371;52.272;9.746;2023-02-11T07:04:44;9.60;78.10
16517;DHT22;8371;52.272;9.746;2023-02-11T07:07:09;9.60;78.30
16517;DHT22;8371;52.272;9.746;2023-02-11T07:09:35;9.60;78.20
16517;DHT22;8371;52.272;9.746;2023-02-11T07:12:01;9.60;78.20
16517;DHT22;8371;52.272;9.746;2023-02-11T07:14:26;9.60;79.00
16517;DHT22;8371;52.272;9.746;2023-02-11T07:16:52;9.60;78.20
16517;DHT22;8371;52.272;9.746;2023-02-11T07:19:17;9.70;78.20
16517;DHT22;8371;52.272;9.746;2023-02-11T07:21:43;9.60;78.20
16517;DHT22;8371;52.272;9.746;2023-02-11T07:24:09;9.70;78.30
16517;DHT22;8371;52.272;9.746;2023-02-11T07:26:35;9.70;78.20
16517;DHT22;8371;52.272;9.746;2023-02-11T07:29:02;9.70;78.30
16517;DHT22;8371;52.272;9.746;2023-02-11T07:31:29;9.70;78.20
16517;DHT22;8371;52.272;9.746;2023-02-11T07:33:57;9.70;78.20
16517;DHT22;8371;52.272;9.746;2023-02-11T07:36:25;9.70;78.10
16517;DHT22;8371;52.272;9.746;2023-02-11T07:38:51;9.70;78.10
16517;DHT22;8371;52.272;9.746;2023-02-11T07:41:19;9.80;78.20
16517;DHT22;8371;52.272;9.746;2023-02-11T07:43:46;9.80;78.10
16517;DHT22;8371;52.272;9.746;2023-02-11T07:46:15;9.80;78.10
16517;DHT22;8371;52.272;9.746;2023-02-11T07:48:41;9.80;78.20
16517;DHT22;8371;52.272;9.746;2023-02-11T07:51:19;9.80;78.20
16517;DHT22;8371;52.272;9.746;2023-02-11T07:53:46;9.80;78.30
16517;DHT22;8371;52.272;9.746;2023-02-11T07:56:13;9.80;78.40
16517;DHT22;8371;52.272;9.746;2023-02-11T07:58:40;9.80;78.50
16517;DHT22;8371;52.272;9.746;2023-02-11T08:01:10;9.90;78.30
16517;DHT22;8371;52.272;9.746;2023-02-11T08:03:38;9.90;79.20
16517;DHT22;8371;52.272;9.746;2023-02-11T08:06:06;9.90;78.30
16517;DHT22;8371;52.272;9.746;2023-02-11T08:08:33;10.00;78.50
16517;DHT22;8371;52.272;9.746;2023-02-11T08:11:07;10.00;78.50
16517;DHT22;8371;52.272;9.746;2023-02-11T08:13:34;10.00;78.50
16517;DHT22;8371;52.272;9.746;2023-02-11T08:16:00;10.10;78.40
16517;DHT22;8371;52.272;9.746;2023-02-11T08:18:25;10.10;78.40
16517;DHT22;8371;52.272;9.746;2023-02-11T08:20:51;10.10;78.30
16517;DHT22;8371;52.272;9.746;2023-02-11T08:23:17;10.20;78.40
16517;DHT22;8371;52.272;9.746;2023-02-11T08:25:42;10.20;78.30
16517;DHT22;8371;52.272;9.746;2023-02-11T08:28:08;10.20;78.30
16517;DHT22;8371;52.272;9.746;2023-02-11T08:30:34;10.30;78.50
16517;DHT22;8371;52.272;9.746;2023-02-11T08:33:00;10.30;78.30
16517;DHT22;8371;52.272;9.746;2023-02-11T08:35:26;10.30;78.20
16517;DHT22;8371;52.272;9.746;2023-02-11T08:37:52;10.40;78.20
16517;DHT22;8371;52.272;9.746;2023-02-11T08:40:18;10.40;78.20
16517;DHT22;8371;52.272;9.746;2023-02-11T08:42:44;10.40;78.20
16517;DHT22;8371;52.272;9.746;2023-02-11T08:45:10;10.50;78.20
16517;DHT22;8371;52.272;9.746;2023-02-11T08:47:37;10.50;78.20
16517;DHT22;8371;52.272;9.746;2023-02-11T08:50:04;10.50;78.20
16517;DHT22;8371;52.272;9.746;2023-02-11T08:52:30;10.50;78.20
16517;DHT22;8371;52.272;9.746;2023-02-11T08:54:56;10.50;78.20
16517;DHT22;8371;52.272;9.746;2023-02-11T08:57:21;10.60;78.20
16517;DHT22;8371;52.272;9.746;2023-02-11T08:59:47;10.60;78.20
16517;DHT22;8371;52.272;9.746;2023-02-11T09:02:13;10.60;78.20
16517;DHT22;8371;52.272;9.746;2023-02-11T09:04:39;10.70;78.20
16517;DHT22;8371;52.272;9.746;2023-02-11T09:07:05;10.70;78.20
16517;DHT22;8371;52.272;9.746;2023-02-11T09:09:31;10.70;78.10
16517;DHT22;8371;52.272;9.746;2023-02-11T09:11:57;10.80;78.60
16517;DHT22;8371;52.272;9.746;2023-02-11T09:14:26;10.80;78.20
16517;DHT22;8371;52.272;9.746;2023-02-11T09:16:52;10.80;78.20
16517;DHT22;8371;52.272;9.746;2023-02-11T09:19:18;10.90;78.30
16517;DHT22;8371;52.272;9.746;2023-02-11T09:21:44;10.80;78.20
16517;DHT22;8371;52.272;9.746;2023-02-11T09:24:10;10.90;78.20
16517;DHT22;8371;52.272;9.746;2023-02-11T09:26:36;11.00;78.20
16517;DHT22;8371;52.272;9.746;2023-02-11T09:29:04;11.00;78.20
16517;DHT22;8371;52.272;9.746;2023-02-11T09:31:31;11.10;78.10
16517;DHT22;8371;52.272;9.746;2023-02-11T09:34:00;11.10;78.10
16517;DHT22;8371;52.272;9.746;2023-02-11T09:36:29;11.10;78.00
16517;DHT22;8371;52.272;9.746;2023-02-11T09:38:57;11.20;78.00
16517;DHT22;8371;52.272;9.746;2023-02-11T09:41:34;11.20;77.90
16517;DHT22;8371;52.272;9.746;2023-02-11T09:44:01;11.20;77.90
16517;DHT22;8371;52.272;9.746;2023-02-11T09:46:31;11.20;77.80
16517;DHT22;8371;52.272;9.746;2023-02-11T09:48:58;11.30;77.90
16517;DHT22;8371;52.272;9.746;2023-02-11T09:51:38;11.30;77.90
16517;DHT22;8371;52.272;9.746;2023-02-11T09:54:06;11.30;77.80
16517;DHT22;8371;52.272;9.746;2023-02-11T09:56:32;11.30;77.60
16517;DHT22;8371;52.272;9.746;2023-02-11T09:58:58;11.30;77.60
16517;DHT22;8371;52.272;9.746;2023-02-11T10:01:42;11.30;77.60
16517;DHT22;8371;52.272;9.746;2023-02-11T10:07:06;11.30;77.60
16517;DHT22;8371;52.272;9.746;2023-02-11T10:09:44;11.30;77.70
16517;DHT22;8371;52.272;9.746;2023-02-11T10:15:14;11.30;77.60
16517;DHT22;8371;52.272;9.746;2023-02-11T10:17:45;11.20;77.60
16517;DHT22;8371;52.272;9.746;2023-02-11T10:22:59;11.30;77.80
16517;DHT22;8371;52.272;9.746;2023-02-11T10:25:39;11.20;77.60
16517;DHT22;8371;52.272;9.746;2023-02-11T10:28:14;11.20;77.80
16517;DHT22;8371;52.272;9.746;2023-02-11T10:30:58;11.20;77.80
16517;DHT22;8371;52.272;9.746;2023-02-11T10:33:30;11.30;77.80
16517;DHT22;8371;52.272;9.746;2023-02-11T10:35:57;11.30;77.80
16517;DHT22;8371;52.272;9.746;2023-02-11T10:38:23;11.30;77.90
16517;DHT22;8371;52.272;9.746;2023-02-11T10:40:49;11.30;77.80
16517;DHT22;8371;52.272;9.746;2023-02-11T10:43:18;11.30;77.90
16517;DHT22;8371;52.272;9.746;2023-02-11T10:45:50;11.30;77.90
16517;DHT22;8371;52.272;9.746;2023-02-11T10:48:37;11.40;78.00
16517;DHT22;8371;52.272;9.746;2023-02-11T10:53:42;11.40;77.90
16517;DHT22;8371;52.272;9.746;2023-02-11T10:56:24;11.40;77.90
16517;DHT22;8371;52.272;9.746;2023-02-11T10:59:04;11.40;77.80
16517;DHT22;8371;52.272;9.746;2023-02-11T11:01:44;11.40;77.80
16517;DHT22;8371;52.272;9.746;2023-02-11T11:04:38;11.50;77.70
16517;DHT22;8371;52.272;9.746;2023-02-11T11:07:18;11.50;77.80
16517;DHT22;8371;52.272;9.746;2023-02-11T11:09:51;11.50;77.70
16517;DHT22;8371;52.272;9.746;2023-02-11T11:12:25;11.50;77.70
16517;DHT22;8371;52.272;9.746;2023-02-11T11:14:57;11.40;77.80
16517;DHT22;8371;52.272;9.746;2023-02-11T11:17:23;11.50;77.70
16517;DHT22;8371;52.272;9.746;2023-02-11T11:19:51;11.40;77.80
16517;DHT22;8371;52.272;9.746;2023-02-11T11:22:21;11.40;77.70
16517;DHT22;8371;52.272;9.746;2023-02-11T11:24:47;11.40;77.80
16517;DHT22;8371;52.272;9.746;2023-02-11T11:27:18;11.50;77.80
16517;DHT22;8371;52.272;9.746;2023-02-11T11:29:52;11.50;78.30
16517;DHT22;8371;52.272;9.746;2023-02-11T11:32:27;11.50;77.80
16517;DHT22;8371;52.272;9.746;2023-02-11T11:34:55;11.50;77.80
16517;DHT22;8371;52.272;9.746;2023-02-11T11:37:28;11.50;77.80
16517;DHT22;8371;52.272;9.746;2023-02-11T11:40:01;11.50;77.80
16517;DHT22;8371;52.272;9.746;2023-02-11T11:42:30;11.50;77.80
16517;DHT22;8371;52.272;9.746;2023-02-11T11:45:01;11.50;77.20
16517;DHT22;8371;52.272;9.746;2023-02-11T11:47:47;11.40;77.80
16517;DHT22;8371;52.272;9.746;2023-02-11T11:50:33;11.40;77.80
16517;DHT22;8371;52.272;9.746;2023-02-11T11:53:06;11.40;77.70
16517;DHT22;8371;52.272;9.746;2023-02-11T11:55:42;11.40;77.70
16517;DHT22;8371;52.272;9.746;2023-02-11T11:58:17;11.40;77.70
16517;DHT22;8371;52.272;9.746;2023-02-11T12:06:45;11.30;78.00
16517;DHT22;8371;52.272;9.746;2023-02-11T12:12:03;11.30;78.00
16517;DHT22;8371;52.272;9.746;2023-02-11T12:14:41;11.20;78.10
16517;DHT22;8371;52.272;9.746;2023-02-11T12:17:13;11.30;78.20
16517;DHT22;8371;52.272;9.746;2023-02-11T12:22:33;11.30;78.30
16517;DHT22;8371;52.272;9.746;2023-02-11T12:25:27;11.30;78.30
16517;DHT22;8371;52.272;9.746;2023-02-11T12:33:10;11.30;78.30
16517;DHT22;8371;52.272;9.746;2023-02-11T12:43:39;11.30;78.30
16517;DHT22;8371;52.272;9.746;2023-02-11T12:47:08;11.30;78.30
16517;DHT22;8371;52.272;9.746;2023-02-11T12:56:59;11.30;78.40
16517;DHT22;8371;52.272;9.746;2023-02-11T13:02:12;11.30;78.50
16517;DHT22;8371;52.272;9.746;2023-02-11T13:04:39;11.20;78.50
16517;DHT22;8371;52.272;9.746;2023-02-11T13:07:13;11.20;78.50
16517;DHT22;8371;52.272;9.746;2023-02-11T13:09:49;11.30;78.50
16517;DHT22;8371;52.272;9.746;2023-02-11T13:12:15;11.30;78.60
16517;DHT22;8371;52.272;9.746;2023-02-11T13:14:53;11.30;78.50
16517;DHT22;8371;52.272;9.746;2023-02-11T13:17:36;11.30;78.70
16517;DHT22;8371;52.272;9.746;2023-02-11T13:20:12;11.30;79.50
16517;DHT22;8371;52.272;9.746;2023-02-11T13:22:45;11.30;78.80
16517;DHT22;8371;52.272;9.746;2023-02-11T13:25:21;11.30;78.80
16517;DHT22;8371;52.272;9.746;2023-02-11T13:27:53;11.30;78.80
16517;DHT22;8371;52.272;9.746;2023-02-11T13:30:28;11.30;78.90
16517;DHT22;8371;52.272;9.746;2023-02-11T13:38:01;11.30;78.60
16517;DHT22;8371;52.272;9.746;2023-02-11T13:40:36;11.30;78.70
16517;DHT22;8371;52.272;9.746;2023-02-11T13:43:04;11.30;78.70
16517;DHT22;8371;52.272;9.746;2023-02-11T13:45:38;11.30;78.80
16517;DHT22;8371;52.272;9.746;2023-02-11T13:48:04;11.30;78.90
16517;DHT22;8371;52.272;9.746;2023-02-11T13:50:38;11.30;78.90
16517;DHT22;8371;52.272;9.746;2023-02-11T13:53:06;11.40;78.90
16517;DHT22;8371;52.272;9.746;2023-02-11T13:55:33;11.40;79.00
16517;DHT22;8371;52.272;9.746;2023-02-11T14:11:48;11.50;79.00
16517;DHT22;8371;52.272;9.746;2023-02-11T14:14:28;11.50;78.90
16517;DHT22;8371;52.272;9.746;2023-02-11T14:19:44;11.50;78.90
16517;DHT22;8371;52.272;9.746;2023-02-11T14:24:57;11.60;78.90
16517;DHT22;8371;52.272;9.746;2023-02-11T14:27:41;11.60;79.10
16517;DHT22;8371;52.272;9.746;2023-02-11T14:38:51;11.60;79.00
16517;DHT22;8371;52.272;9.746;2023-02-11T14:41:23;11.60;79.00
16517;DHT22;8371;52.272;9.746;2023-02-11T14:46:24;11.60;79.10
16517;DHT22;8371;52.272;9.746;2023-02-11T14:48:53;11.60;79.10
16517;DHT22;8371;52.272;9.746;2023-02-11T14:51:30;11.60;79.10
16517;DHT22;8371;52.272;9.746;2023-02-11T14:53:56;11.60;78.70
16517;DHT22;8371;52.272;9.746;2023-02-11T14:56:26;11.60;79.10
16517;DHT22;8371;52.272;9.746;2023-02-11T14:58:54;11.60;79.10
16517;DHT22;8371;52.272;9.746;2023-02-11T15:01:35;11.60;79.20
16517;DHT22;8371;52.272;9.746;2023-02-11T15:04:04;11.60;79.20
16517;DHT22;8371;52.272;9.746;2023-02-11T15:06:39;11.60;79.20
16517;DHT22;8371;52.272;9.746;2023-02-11T15:09:13;11.60;79.00
16517;DHT22;8371;52.272;9.746;2023-02-11T15:11:42;11.60;79.20
16517;DHT22;8371;52.272;9.746;2023-02-11T15:14:18;11.60;79.20
16517;DHT22;8371;52.272;9.746;2023-02-11T15:16:42;11.60;79.30
16517;DHT22;8371;52.272;9.746;2023-02-11T15:21:57;11.60;79.30
16517;DHT22;8371;52.272;9.746;2023-02-11T15:24:26;11.60;79.20
16517;DHT22;8371;52.272;9.746;2023-02-11T15:27:01;11.60;79.20
16517;DHT22;8371;52.272;9.746;2023-02-11T15:29:34;11.60;79.20
16517;DHT22;8371;52.272;9.746;2023-02-11T15:34:34;11.70;79.20
16517;DHT22;8371;52.272;9.746;2023-02-11T15:37:02;11.70;79.10
16517;DHT22;8371;52.272;9.746;2023-02-11T15:39:31;11.60;79.10
16517;DHT22;8371;52.272;9.746;2023-02-11T15:44:42;11.60;79.10
16517;DHT22;8371;52.272;9.746;2023-02-11T15:47:11;11.70;79.00
16517;DHT22;8371;52.272;9.746;2023-02-11T15:49:38;11.70;79.20
16517;DHT22;8371;52.272;9.746;2023-02-11T15:52:06;11.60;79.00
16517;DHT22;8371;52.272;9.746;2023-02-11T15:54:32;11.60;79.10
16517;DHT22;8371;52.272;9.746;2023-02-11T15:57:01;11.60;79.10
16517;DHT22;8371;52.272;9.746;2023-02-11T15:59:31;11.60;79.10
16517;DHT22;8371;52.272;9.746;2023-02-11T16:02:04;11.50;79.00
16517;DHT22;8371;52.272;9.746;2023-02-11T16:04:27;11.60;79.20
16517;DHT22;8371;52.272;9.746;2023-02-11T16:06:54;11.50;79.00
16517;DHT22;8371;52.272;9.746;2023-02-11T16:09:32;11.50;79.10
16517;DHT22;8371;52.272;9.746;2023-02-11T16:12:03;11.50;79.10
16517;DHT22;8371;52.272;9.746;2023-02-11T16:14:33;11.50;79.10
16517;DHT22;8371;52.272;9.746;2023-02-11T16:17:10;11.40;79.10
16517;DHT22;8371;52.272;9.746;2023-02-11T16:19:44;11.40;79.10
16517;DHT22;8371;52.272;9.746;2023-02-11T16:22:16;11.40;79.20
16517;DHT22;8371;52.272;9.746;2023-02-11T16:24:45;11.40;79.20
16517;DHT22;8371;52.272;9.746;2023-02-11T16:27:31;11.40;79.10
16517;DHT22;8371;52.272;9.746;2023-02-11T16:29:56;11.30;79.20
16517;DHT22;8371;52.272;9.746;2023-02-11T16:32:25;11.30;79.20
16517;DHT22;8371;52.272;9.746;2023-02-11T16:34:52;11.30;79.40
16517;DHT22;8371;52.272;9.746;2023-02-11T16:37:19;11.30;79.40
16517;DHT22;8371;52.272;9.746;2023-02-11T16:39:45;11.30;79.50
16517;DHT22;8371;52.272;9.746;2023-02-11T16:42:11;11.30;79.50
16517;DHT22;8371;52.272;9.746;2023-02-11T16:44:37;11.30;79.60
16517;DHT22;8371;52.272;9.746;2023-02-11T16:47:05;11.30;79.50
16517;DHT22;8371;52.272;9.746;2023-02-11T16:49:34;11.30;79.60
16517;DHT22;8371;52.272;9.746;2023-02-11T16:52:07;11.20;80.20
16517;DHT22;8371;52.272;9.746;2023-02-11T16:54:33;11.30;79.10
16517;DHT22;8371;52.272;9.746;2023-02-11T16:56:59;11.30;79.60
16517;DHT22;8371;52.272;9.746;2023-02-11T16:59:24;11.30;79.60
16517;DHT22;8371;52.272;9.746;2023-02-11T17:01:52;11.30;79.60
16517;DHT22;8371;52.272;9.746;2023-02-11T17:04:21;11.30;79.70
16517;DHT22;8371;52.272;9.746;2023-02-11T17:06:47;11.20;79.60
16517;DHT22;8371;52.272;9.746;2023-02-11T17:09:21;11.30;79.80
16517;DHT22;8371;52.272;9.746;2023-02-11T17:11:48;11.30;79.80
16517;DHT22;8371;52.272;9.746;2023-02-11T17:14:14;11.30;79.80
16517;DHT22;8371;52.272;9.746;2023-02-11T17:16:41;11.30;79.80
16517;DHT22;8371;52.272;9.746;2023-02-11T17:19:10;11.30;79.80
16517;DHT22;8371;52.272;9.746;2023-02-11T17:21:36;11.30;80.00
16517;DHT22;8371;52.272;9.746;2023-02-11T17:24:01;11.30;80.10
16517;DHT22;8371;52.272;9.746;2023-02-11T17:26:27;11.30;79.90
16517;DHT22;8371;52.272;9.746;2023-02-11T17:28:53;11.30;79.90
16517;DHT22;8371;52.272;9.746;2023-02-11T17:31:18;11.30;79.90
16517;DHT22;8371;52.272;9.746;2023-02-11T17:33:44;11.40;80.00
16517;DHT22;8371;52.272;9.746;2023-02-11T17:36:10;11.30;80.00
16517;DHT22;8371;52.272;9.746;2023-02-11T17:38:36;11.40;79.30
16517;DHT22;8371;52.272;9.746;2023-02-11T17:41:03;11.40;80.00
16517;DHT22;8371;52.272;9.746;2023-02-11T17:43:29;11.40;80.10
16517;DHT22;8371;52.272;9.746;2023-02-11T17:45:56;11.40;80.10
16517;DHT22;8371;52.272;9.746;2023-02-11T17:48:22;11.40;80.10
16517;DHT22;8371;52.272;9.746;2023-02-11T17:50:48;11.40;80.10
16517;DHT22;8371;52.272;9.746;2023-02-11T17:53:13;11.40;80.10
16517;DHT22;8371;52.272;9.746;2023-02-11T17:55:39;11.40;80.10